sensor_id;sensor_type;location;lat;lon;timestamp;pressure;altitude;pressure_sealevel;temperature;humidity
58473;BME280;44775;51.564;5.460;2023-05-16T00:02:23;101608.25;;;10.71;100.00
58473;BME280;44775;51.564;5.460;2023-05-16T00:04:49;101600.53;;;10.68;100.00
58473;BME280;44775;51.564;5.460;2023-05-16T00:07:14;101608.03;;;11.00;100.00
58473;BME280;44775;51.564;5.460;2023-05-16T00:09:40;101612.16;;;10.94;100.00
58473;BME280;44775;51.564;5.460;2023-05-16T00:12:06;101603.56;;;10.73;100.00
58473;BME280;44775;51.564;5.460;2023-05-16T00:14:31;101608.66;;;10.94;100.00
58473;BME280;44775;51.564;5.460;2023-05-16T00:16:57;101612.38;;;10.83;100.00
58473;BME280;44775;51.564;5.460;2023-05-16T00:19:23;101611.16;;;10.77;100.00
58473;BME280;44775;51.564;5.460;2023-05-16T00:21:48;101612.13;;;10.58;100.00
58473;BME280;44775;51.564;5.460;2023-05-16T00:24:14;101619.38;;;10.66;100.00
58473;BME280;44775;51.564;5.460;2023-05-16T00:26:39;101610.63;;;10.74;100.00
58473;BME280;44775;51.564;5.460;2023-05-16T00:29:05;101607.66;;;10.49;100.00
58473;BME280;44775;51.564;5.460;2023-05-16T00:31:31;101622.47;;;10.44;100.00
58473;BME280;44775;51.564;5.460;2023-05-16T00:33:56;101613.66;;;10.33;100.00
58473;BME280;44775;51.564;5.460;2023-05-16T00:36:22;101608.34;;;10.24;100.00
58473;BME280;44775;51.564;5.460;2023-05-16T00:38:47;101615.66;;;10.22;100.00
58473;BME280;44775;51.564;5.460;2023-05-16T00:41:13;101619.22;;;10.50;100.00
58473;BME280;44775;51.564;5.460;2023-05-16T00:43:38;101619.03;;;10.24;100.00
58473;BME280;44775;51.564;5.460;2023-05-16T00:46:04;101612.63;;;10.07;100.00
58473;BME280;44775;51.564;5.460;2023-05-16T00:48:29;101612.13;;;9.84;100.00
58473;BME280;44775;51.564;5.460;2023-05-16T00:50:55;101601.34;;;9.76;100.00
58473;BME280;44775;51.564;5.460;2023-05-16T00:53:20;101606.44;;;9.59;100.00
58473;BME280;44775;51.564;5.460;2023-05-16T00:55:46;101605.19;;;9.54;100.00
58473;BME280;44775;51.564;5.460;2023-05-16T00:58:11;101615.19;;;9.42;100.00
58473;BME280;44775;51.564;5.460;2023-05-16T01:00:37;101622.06;;;9.35;100.00
58473;BME280;44775;51.564;5.460;2023-05-16T01:03:05;101615.47;;;9.10;100.00
58473;BME280;44775;51.564;5.460;2023-05-16T01:05:31;101625.16;;;9.20;100.00
58473;BME280;44775;51.564;5.460;2023-05-16T01:07:57;101611.97;;;9.09;100.00
58473;BME280;44775;51.564;5.460;2023-05-16T01:10:23;101618.53;;;9.25;100.00
58473;BME280;44775;51.564;5.460;2023-05-16T01:13:11;101626.41;;;9.16;100.00
58473;BME280;44775;51.564;5.460;2023-05-16T01:15:50;101614.78;;;8.98;100.00
58473;BME280;44775;51.564;5.460;2023-05-16T01:21:04;101623.75;;;8.97;100.00
58473;BME280;44775;51.564;5.460;2023-05-16T01:26:19;101629.78;;;8.89;100.00
58473;BME280;44775;51.564;5.460;2023-05-16T01:28:47;101625.69;;;8.85;100.00
58473;BME280;44775;51.564;5.460;2023-05-16T01:31:13;101618.69;;;8.94;100.00
58473;BME280;44775;51.564;5.460;2023-05-16T01:33:39;101627.13;;;8.99;100.00
58473;BME280;44775;51.564;5.460;2023-05-16T01:36:39;101636.66;;;9.02;100.00
58473;BME280;44775;51.564;5.460;2023-05-16T01:42:07;101631.16;;;8.93;100.00
58473;BME280;44775;51.564;5.460;2023-05-16T01:44:40;101629.47;;;8.73;100.00
58473;BME280;44775;51.564;5.460;2023-05-16T01:47:13;101632.25;;;8.62;100.00
58473;BME280;44775;51.564;5.460;2023-05-16T01:49:45;101635.03;;;8.50;100.00
58473;BME280;44775;51.564;5.460;2023-05-16T01:52:19;101635.88;;;8.20;100.00
58473;BME280;44775;51.564;5.460;2023-05-16T01:54:47;101642.78;;;8.33;100.00
58473;BME280;44775;51.564;5.460;2023-05-16T01:57:14;101647.56;;;8.08;100.00
58473;BME280;44775;51.564;5.460;2023-05-16T01:59:41;101646.16;;;8.04;100.00
58473;BME280;44775;51.564;5.460;2023-05-16T02:02:07;101632.00;;;8.34;100.00
58473;BME280;44775;51.564;5.460;2023-05-16T02:04:32;101644.81;;;8.19;100.00
58473;BME280;44775;51.564;5.460;2023-05-16T02:06:57;101646.28;;;8.33;100.00
58473;BME280;44775;51.564;5.460;2023-05-16T02:09:24;101652.47;;;8.34;100.00
58473;BME280;44775;51.564;5.460;2023-05-16T02:11:50;101644.06;;;8.08;100.00
58473;BME280;44775;51.564;5.460;2023-05-16T02:14:15;101646.47;;;8.11;100.00
58473;BME280;44775;51.564;5.460;2023-05-16T02:16:40;101654.84;;;8.06;100.00
58473;BME280;44775;51.564;5.460;2023-05-16T02:19:06;101653.94;;;8.17;100.00
58473;BME280;44775;51.564;5.460;2023-05-16T02:21:31;101647.75;;;8.16;100.00
58473;BME280;44775;51.564;5.460;2023-05-16T02:23:56;101654.91;;;8.16;100.00
58473;BME280;44775;51.564;5.460;2023-05-16T02:26:21;101649.88;;;8.22;100.00
58473;BME280;44775;51.564;5.460;2023-05-16T02:28:47;101663.47;;;8.50;100.00
58473;BME280;44775;51.564;5.460;2023-05-16T02:33:52;101652.38;;;8.14;100.00
58473;BME280;44775;51.564;5.460;2023-05-16T02:36:17;101658.19;;;8.29;100.00
58473;BME280;44775;51.564;5.460;2023-05-16T02:38:43;101654.06;;;8.15;100.00
58473;BME280;44775;51.564;5.460;2023-05-16T02:41:08;101660.56;;;8.32;100.00
58473;BME280;44775;51.564;5.460;2023-05-16T02:43:33;101663.91;;;8.24;100.00
58473;BME280;44775;51.564;5.460;2023-05-16T02:45:58;101669.91;;;7.96;100.00
58473;BME280;44775;51.564;5.460;2023-05-16T02:48:24;101669.72;;;8.09;100.00
58473;BME280;44775;51.564;5.460;2023-05-16T02:50:49;101675.66;;;7.91;100.00
58473;BME280;44775;51.564;5.460;2023-05-16T02:53:16;101678.75;;;7.75;100.00
58473;BME280;44775;51.564;5.460;2023-05-16T02:55:41;101682.72;;;7.60;100.00
58473;BME280;44775;51.564;5.460;2023-05-16T02:58:07;101676.25;;;7.74;100.00
58473;BME280;44775;51.564;5.460;2023-05-16T03:00:32;101680.69;;;7.52;100.00
58473;BME280;44775;51.564;5.460;2023-05-16T03:02:58;101677.16;;;7.63;100.00
58473;BME280;44775;51.564;5.460;2023-05-16T03:05:23;101697.03;;;7.48;100.00
58473;BME280;44775;51.564;5.460;2023-05-16T03:07:48;101687.25;;;7.48;100.00
58473;BME280;44775;51.564;5.460;2023-05-16T03:10:13;101698.38;;;7.42;100.00
58473;BME280;44775;51.564;5.460;2023-05-16T03:12:39;101701.81;;;7.33;100.00
58473;BME280;44775;51.564;5.460;2023-05-16T03:15:05;101698.81;;;7.26;100.00
58473;BME280;44775;51.564;5.460;2023-05-16T03:17:30;101705.56;;;7.30;100.00
58473;BME280;44775;51.564;5.460;2023-05-16T03:19:56;101701.91;;;7.43;100.00
58473;BME280;44775;51.564;5.460;2023-05-16T03:22:21;101704.63;;;7.20;100.00
58473;BME280;44775;51.564;5.460;2023-05-16T03:24:46;101700.44;;;7.39;100.00
58473;BME280;44775;51.564;5.460;2023-05-16T03:27:11;101700.19;;;7.53;100.00
58473;BME280;44775;51.564;5.460;2023-05-16T03:29:37;101700.19;;;7.42;100.00
58473;BME280;44775;51.564;5.460;2023-05-16T03:32:02;101696.94;;;7.70;100.00
58473;BME280;44775;51.564;5.460;2023-05-16T03:34:27;101696.59;;;7.85;100.00
58473;BME280;44775;51.564;5.460;2023-05-16T03:36:53;101702.25;;;7.70;100.00
58473;BME280;44775;51.564;5.460;2023-05-16T03:39:18;101695.56;;;7.76;100.00
58473;BME280;44775;51.564;5.460;2023-05-16T03:41:44;101706.00;;;7.47;100.00
58473;BME280;44775;51.564;5.460;2023-05-16T03:44:09;101708.22;;;7.30;100.00
58473;BME280;44775;51.564;5.460;2023-05-16T03:46:35;101722.84;;;7.36;100.00
58473;BME280;44775;51.564;5.460;2023-05-16T03:49:00;101718.28;;;7.27;100.00
58473;BME280;44775;51.564;5.460;2023-05-16T03:51:26;101716.59;;;7.15;100.00
58473;BME280;44775;51.564;5.460;2023-05-16T03:53:52;101727.22;;;7.26;100.00
58473;BME280;44775;51.564;5.460;2023-05-16T03:56:17;101721.84;;;6.94;100.00
58473;BME280;44775;51.564;5.460;2023-05-16T03:58:43;101719.84;;;7.18;100.00
58473;BME280;44775;51.564;5.460;2023-05-16T04:01:08;101732.97;;;6.99;100.00
58473;BME280;44775;51.564;5.460;2023-05-16T04:03:33;101734.91;;;6.74;100.00
58473;BME280;44775;51.564;5.460;2023-05-16T04:05:58;101730.22;;;6.67;100.00
58473;BME280;44775;51.564;5.460;2023-05-16T04:08:24;101735.75;;;6.75;100.00
58473;BME280;44775;51.564;5.460;2023-05-16T04:10:50;101735.63;;;6.88;100.00
58473;BME280;44775;51.564;5.460;2023-05-16T04:13:15;101737.34;;;6.66;100.00
58473;BME280;44775;51.564;5.460;2023-05-16T04:15:40;101729.72;;;6.50;100.00
58473;BME280;44775;51.564;5.460;2023-05-16T04:18:06;101728.41;;;6.56;100.00
58473;BME280;44775;51.564;5.460;2023-05-16T04:20:31;101729.25;;;6.45;100.00
58473;BME280;44775;51.564;5.460;2023-05-16T04:22:56;101745.06;;;6.69;100.00
58473;BME280;44775;51.564;5.460;2023-05-16T04:25:22;101739.28;;;6.53;100.00
58473;BME280;44775;51.564;5.460;2023-05-16T04:27:47;101733.59;;;6.35;100.00
58473;BME280;44775;51.564;5.460;2023-05-16T04:30:12;101737.56;;;6.29;100.00
58473;BME280;44775;51.564;5.460;2023-05-16T04:32:38;101749.63;;;6.22;100.00
58473;BME280;44775;51.564;5.460;2023-05-16T04:35:04;101750.09;;;6.16;100.00
58473;BME280;44775;51.564;5.460;2023-05-16T04:37:29;101750.00;;;6.29;100.00
58473;BME280;44775;51.564;5.460;2023-05-16T04:39:55;101750.78;;;6.07;100.00
58473;BME280;44775;51.564;5.460;2023-05-16T04:42:21;101751.28;;;6.01;100.00
58473;BME280;44775;51.564;5.460;2023-05-16T04:44:46;101747.81;;;6.11;100.00
58473;BME280;44775;51.564;5.460;2023-05-16T04:47:12;101762.63;;;6.14;100.00
58473;BME280;44775;51.564;5.460;2023-05-16T04:49:38;101763.34;;;6.05;100.00
58473;BME280;44775;51.564;5.460;2023-05-16T04:52:05;101765.03;;;6.17;100.00
58473;BME280;44775;51.564;5.460;2023-05-16T04:54:32;101759.72;;;6.17;100.00
58473;BME280;44775;51.564;5.460;2023-05-16T04:56:57;101750.34;;;6.24;100.00
58473;BME280;44775;51.564;5.460;2023-05-16T04:59:23;101772.34;;;6.49;100.00
58473;BME280;44775;51.564;5.460;2023-05-16T05:01:48;101777.56;;;6.61;100.00
58473;BME280;44775;51.564;5.460;2023-05-16T05:04:14;101773.94;;;6.62;100.00
58473;BME280;44775;51.564;5.460;2023-05-16T05:06:40;101784.31;;;6.66;100.00
58473;BME280;44775;51.564;5.460;2023-05-16T05:09:05;101785.16;;;6.66;100.00
58473;BME280;44775;51.564;5.460;2023-05-16T05:11:31;101777.06;;;6.79;100.00
58473;BME280;44775;51.564;5.460;2023-05-16T05:13:56;101775.13;;;6.81;100.00
58473;BME280;44775;51.564;5.460;2023-05-16T05:16:21;101780.53;;;7.02;100.00
58473;BME280;44775;51.564;5.460;2023-05-16T05:18:47;101783.19;;;7.02;100.00
58473;BME280;44775;51.564;5.460;2023-05-16T05:21:12;101775.94;;;7.15;100.00
58473;BME280;44775;51.564;5.460;2023-05-16T05:23:38;101793.72;;;7.58;100.00
58473;BME280;44775;51.564;5.460;2023-05-16T05:26:03;101786.97;;;7.54;100.00
58473;BME280;44775;51.564;5.460;2023-05-16T05:28:29;101786.44;;;7.92;100.00
58473;BME280;44775;51.564;5.460;2023-05-16T05:30:54;101787.00;;;8.07;100.00
58473;BME280;44775;51.564;5.460;2023-05-16T05:33:25;101788.19;;;8.03;100.00
58473;BME280;44775;51.564;5.460;2023-05-16T05:35:51;101795.50;;;8.22;100.00
58473;BME280;44775;51.564;5.460;2023-05-16T05:38:18;101797.19;;;8.65;100.00
58473;BME280;44775;51.564;5.460;2023-05-16T05:40:43;101794.34;;;8.97;100.00
58473;BME280;44775;51.564;5.460;2023-05-16T05:43:09;101804.88;;;9.39;100.00
58473;BME280;44775;51.564;5.460;2023-05-16T05:45:34;101796.91;;;9.78;100.00
58473;BME280;44775;51.564;5.460;2023-05-16T05:47:59;101807.56;;;10.07;99.92
58473;BME280;44775;51.564;5.460;2023-05-16T05:50:25;101811.34;;;10.24;97.00
58473;BME280;44775;51.564;5.460;2023-05-16T05:52:51;101816.81;;;10.51;97.53
58473;BME280;44775;51.564;5.460;2023-05-16T05:55:16;101809.16;;;10.66;96.35
58473;BME280;44775;51.564;5.460;2023-05-16T05:57:41;101816.28;;;10.85;92.67
58473;BME280;44775;51.564;5.460;2023-05-16T06:00:07;101829.13;;;11.09;92.02
58473;BME280;44775;51.564;5.460;2023-05-16T06:02:34;101819.44;;;11.08;87.53
58473;BME280;44775;51.564;5.460;2023-05-16T06:04:59;101832.72;;;11.27;86.12
58473;BME280;44775;51.564;5.460;2023-05-16T06:07:25;101830.31;;;11.52;90.78
58473;BME280;44775;51.564;5.460;2023-05-16T06:09:50;101835.41;;;11.45;85.58
58473;BME280;44775;51.564;5.460;2023-05-16T06:12:16;101839.88;;;11.54;84.35
58473;BME280;44775;51.564;5.460;2023-05-16T06:14:41;101841.28;;;11.76;86.83
58473;BME280;44775;51.564;5.460;2023-05-16T06:17:07;101844.25;;;11.73;83.10
58473;BME280;44775;51.564;5.460;2023-05-16T06:19:32;101845.91;;;12.02;89.07
58473;BME280;44775;51.564;5.460;2023-05-16T06:21:58;101846.19;;;12.17;79.22
58473;BME280;44775;51.564;5.460;2023-05-16T06:24:23;101861.34;;;12.26;78.42
58473;BME280;44775;51.564;5.460;2023-05-16T06:26:48;101852.53;;;12.34;85.31
58473;BME280;44775;51.564;5.460;2023-05-16T06:29:15;101862.88;;;12.28;80.26
58473;BME280;44775;51.564;5.460;2023-05-16T06:31:41;101850.75;;;12.42;82.25
58473;BME280;44775;51.564;5.460;2023-05-16T06:34:06;101854.66;;;12.74;79.86
58473;BME280;44775;51.564;5.460;2023-05-16T06:36:31;101853.34;;;12.78;80.00
58473;BME280;44775;51.564;5.460;2023-05-16T06:38:57;101844.75;;;13.00;79.88
58473;BME280;44775;51.564;5.460;2023-05-16T06:41:22;101853.19;;;13.14;75.72
58473;BME280;44775;51.564;5.460;2023-05-16T06:43:48;101857.50;;;13.33;75.41
58473;BME280;44775;51.564;5.460;2023-05-16T06:46:13;101861.25;;;13.56;74.56
58473;BME280;44775;51.564;5.460;2023-05-16T06:48:38;101865.84;;;13.64;72.38
58473;BME280;44775;51.564;5.460;2023-05-16T06:51:04;101857.78;;;13.64;69.07
58473;BME280;44775;51.564;5.460;2023-05-16T06:53:29;101866.81;;;13.63;76.19
58473;BME280;44775;51.564;5.460;2023-05-16T06:55:55;101860.94;;;13.51;64.10
58473;BME280;44775;51.564;5.460;2023-05-16T06:58:20;101854.47;;;13.28;72.55
58473;BME280;44775;51.564;5.460;2023-05-16T07:00:45;101860.34;;;13.05;66.26
58473;BME280;44775;51.564;5.460;2023-05-16T07:03:11;101857.00;;;13.03;69.17
58473;BME280;44775;51.564;5.460;2023-05-16T07:05:37;101849.56;;;13.23;72.41
58473;BME280;44775;51.564;5.460;2023-05-16T07:08:02;101845.78;;;13.34;76.24
58473;BME280;44775;51.564;5.460;2023-05-16T07:10:27;101857.28;;;13.26;73.00
58473;BME280;44775;51.564;5.460;2023-05-16T07:12:53;101857.41;;;13.51;74.41
58473;BME280;44775;51.564;5.460;2023-05-16T07:15:18;101856.44;;;13.68;64.15
58473;BME280;44775;51.564;5.460;2023-05-16T07:17:44;101858.84;;;13.96;71.15
58473;BME280;44775;51.564;5.460;2023-05-16T07:20:10;101874.81;;;14.22;64.54
58473;BME280;44775;51.564;5.460;2023-05-16T07:22:38;101881.72;;;14.49;60.89
58473;BME280;44775;51.564;5.460;2023-05-16T07:25:04;101872.94;;;14.71;58.52
58473;BME280;44775;51.564;5.460;2023-05-16T07:27:30;101875.81;;;14.86;67.24
58473;BME280;44775;51.564;5.460;2023-05-16T07:29:56;101882.84;;;14.87;55.16
58473;BME280;44775;51.564;5.460;2023-05-16T07:32:21;101878.72;;;14.68;54.42
58473;BME280;44775;51.564;5.460;2023-05-16T07:34:46;101884.09;;;14.68;56.90
58473;BME280;44775;51.564;5.460;2023-05-16T07:37:12;101894.16;;;14.82;54.36
58473;BME280;44775;51.564;5.460;2023-05-16T07:39:41;101890.09;;;14.86;55.53
58473;BME280;44775;51.564;5.460;2023-05-16T07:42:07;101887.63;;;15.24;56.29
58473;BME280;44775;51.564;5.460;2023-05-16T07:44:33;101893.06;;;15.16;53.15
58473;BME280;44775;51.564;5.460;2023-05-16T07:46:59;101884.16;;;15.07;52.42
58473;BME280;44775;51.564;5.460;2023-05-16T07:49:24;101892.81;;;14.78;52.89
58473;BME280;44775;51.564;5.460;2023-05-16T07:51:50;101890.13;;;14.70;55.33
58473;BME280;44775;51.564;5.460;2023-05-16T07:54:15;101877.84;;;14.43;54.93
58473;BME280;44775;51.564;5.460;2023-05-16T07:56:40;101889.44;;;14.19;55.63
58473;BME280;44775;51.564;5.460;2023-05-16T07:59:06;101889.44;;;14.27;54.24
58473;BME280;44775;51.564;5.460;2023-05-16T08:01:31;101887.75;;;14.67;64.37
58473;BME280;44775;51.564;5.460;2023-05-16T08:03:57;101887.13;;;14.65;62.46
58473;BME280;44775;51.564;5.460;2023-05-16T08:06:22;101888.06;;;14.48;56.61
58473;BME280;44775;51.564;5.460;2023-05-16T08:08:47;101891.44;;;14.17;57.47
58473;BME280;44775;51.564;5.460;2023-05-16T08:11:12;101882.22;;;14.11;65.53
58473;BME280;44775;51.564;5.460;2023-05-16T08:13:38;101891.75;;;14.14;59.58
58473;BME280;44775;51.564;5.460;2023-05-16T08:16:03;101891.13;;;14.28;63.18
58473;BME280;44775;51.564;5.460;2023-05-16T08:18:29;101896.88;;;13.66;57.00
58473;BME280;44775;51.564;5.460;2023-05-16T08:20:54;101895.81;;;13.17;59.56
58473;BME280;44775;51.564;5.460;2023-05-16T08:23:19;101895.31;;;13.48;69.26
58473;BME280;44775;51.564;5.460;2023-05-16T08:25:45;101886.56;;;14.12;69.99
58473;BME280;44775;51.564;5.460;2023-05-16T08:28:10;101890.31;;;14.69;63.84
58473;BME280;44775;51.564;5.460;2023-05-16T08:30:35;101891.97;;;15.33;63.09
58473;BME280;44775;51.564;5.460;2023-05-16T08:33:01;101894.84;;;15.71;50.10
58473;BME280;44775;51.564;5.460;2023-05-16T08:35:29;101894.81;;;16.02;64.87
58473;BME280;44775;51.564;5.460;2023-05-16T08:37:55;101896.44;;;16.12;49.59
58473;BME280;44775;51.564;5.460;2023-05-16T08:40:21;101898.66;;;16.54;50.91
58473;BME280;44775;51.564;5.460;2023-05-16T08:42:50;101884.63;;;16.36;58.73
58473;BME280;44775;51.564;5.460;2023-05-16T08:45:15;101890.47;;;16.62;48.78
58473;BME280;44775;51.564;5.460;2023-05-16T08:47:42;101880.94;;;16.89;59.12
58473;BME280;44775;51.564;5.460;2023-05-16T08:50:09;101885.13;;;16.77;62.33
58473;BME280;44775;51.564;5.460;2023-05-16T08:52:37;101896.59;;;16.79;50.48
58473;BME280;44775;51.564;5.460;2023-05-16T08:55:03;101882.16;;;16.87;46.86
58473;BME280;44775;51.564;5.460;2023-05-16T08:57:36;101897.44;;;16.57;45.01
58473;BME280;44775;51.564;5.460;2023-05-16T09:00:02;101882.28;;;16.70;50.25
58473;BME280;44775;51.564;5.460;2023-05-16T09:02:31;101894.09;;;16.69;49.25
58473;BME280;44775;51.564;5.460;2023-05-16T09:04:57;101891.59;;;16.91;57.13
58473;BME280;44775;51.564;5.460;2023-05-16T09:07:23;101888.41;;;17.02;52.32
58473;BME280;44775;51.564;5.460;2023-05-16T09:09:49;101893.75;;;17.61;49.80
58473;BME280;44775;51.564;5.460;2023-05-16T09:12:14;101890.91;;;18.21;50.06
58473;BME280;44775;51.564;5.460;2023-05-16T09:14:40;101889.09;;;18.56;50.13
58473;BME280;44775;51.564;5.460;2023-05-16T09:17:07;101901.06;;;18.90;40.17
58473;BME280;44775;51.564;5.460;2023-05-16T09:19:42;101890.47;;;18.67;48.71
58473;BME280;44775;51.564;5.460;2023-05-16T09:22:11;101905.22;;;17.63;44.91
58473;BME280;44775;51.564;5.460;2023-05-16T09:24:41;101884.59;;;17.26;57.17
58473;BME280;44775;51.564;5.460;2023-05-16T09:27:14;101902.56;;;17.19;53.92
58473;BME280;44775;51.564;5.460;2023-05-16T09:29:43;101897.44;;;16.57;51.11
58473;BME280;44775;51.564;5.460;2023-05-16T09:32:12;101907.59;;;16.32;49.53
58473;BME280;44775;51.564;5.460;2023-05-16T09:34:45;101898.00;;;16.06;50.76
58473;BME280;44775;51.564;5.460;2023-05-16T09:37:13;101890.47;;;16.01;58.26
58473;BME280;44775;51.564;5.460;2023-05-16T09:39:40;101900.03;;;15.81;58.35
58473;BME280;44775;51.564;5.460;2023-05-16T09:42:10;101907.56;;;16.17;51.31
58473;BME280;44775;51.564;5.460;2023-05-16T09:44:36;101889.06;;;16.74;57.47
58473;BME280;44775;51.564;5.460;2023-05-16T09:47:02;101886.47;;;17.26;57.66
58473;BME280;44775;51.564;5.460;2023-05-16T09:49:27;101881.19;;;17.68;44.21
58473;BME280;44775;51.564;5.460;2023-05-16T09:51:53;101889.34;;;17.90;40.12
58473;BME280;44775;51.564;5.460;2023-05-16T09:54:31;101899.47;;;18.03;41.52
58473;BME280;44775;51.564;5.460;2023-05-16T09:56:58;101888.84;;;18.23;38.93
58473;BME280;44775;51.564;5.460;2023-05-16T09:59:24;101894.97;;;18.59;41.91
58473;BME280;44775;51.564;5.460;2023-05-16T10:01:51;101887.81;;;19.01;45.15
58473;BME280;44775;51.564;5.460;2023-05-16T10:04:17;101895.50;;;18.70;44.00
58473;BME280;44775;51.564;5.460;2023-05-16T10:06:44;101894.75;;;18.11;40.80
58473;BME280;44775;51.564;5.460;2023-05-16T10:09:11;101893.16;;;17.30;42.07
58473;BME280;44775;51.564;5.460;2023-05-16T10:11:39;101901.00;;;16.95;44.38
58473;BME280;44775;51.564;5.460;2023-05-16T10:14:06;101896.16;;;17.35;46.18
58473;BME280;44775;51.564;5.460;2023-05-16T10:16:32;101897.66;;;17.74;48.55
58473;BME280;44775;51.564;5.460;2023-05-16T10:18:59;101896.56;;;18.04;42.37
58473;BME280;44775;51.564;5.460;2023-05-16T10:21:27;101879.91;;;18.50;48.25
58473;BME280;44775;51.564;5.460;2023-05-16T10:23:55;101879.88;;;19.00;43.91
58473;BME280;44775;51.564;5.460;2023-05-16T10:26:23;101892.59;;;19.34;42.49
58473;BME280;44775;51.564;5.460;2023-05-16T10:28:49;101892.25;;;19.16;37.29
58473;BME280;44775;51.564;5.460;2023-05-16T10:31:15;101891.75;;;18.49;44.32
58473;BME280;44775;51.564;5.460;2023-05-16T10:33:41;101889.97;;;18.35;40.27
58473;BME280;44775;51.564;5.460;2023-05-16T10:36:11;101887.59;;;18.04;40.31
58473;BME280;44775;51.564;5.460;2023-05-16T10:38:40;101891.16;;;18.04;45.53
58473;BME280;44775;51.564;5.460;2023-05-16T10:41:07;101889.63;;;18.16;41.49
58473;BME280;44775;51.564;5.460;2023-05-16T10:43:32;101889.00;;;18.42;41.88
58473;BME280;44775;51.564;5.460;2023-05-16T10:46:03;101885.19;;;18.58;45.09
58473;BME280;44775;51.564;5.460;2023-05-16T10:48:34;101888.69;;;18.74;43.15
58473;BME280;44775;51.564;5.460;2023-05-16T10:51:01;101883.91;;;18.54;46.95
58473;BME280;44775;51.564;5.460;2023-05-16T10:53:34;101893.06;;;18.53;48.94
58473;BME280;44775;51.564;5.460;2023-05-16T11:01:22;101891.00;;;17.91;41.23
58473;BME280;44775;51.564;5.460;2023-05-16T11:06:26;101903.59;;;17.03;40.50
58473;BME280;44775;51.564;5.460;2023-05-16T11:09:20;101892.94;;;16.87;45.96
58473;BME280;44775;51.564;5.460;2023-05-16T11:17:14;101888.41;;;17.32;42.85
58473;BME280;44775;51.564;5.460;2023-05-16T11:20:00;101895.75;;;16.79;47.11
58473;BME280;44775;51.564;5.460;2023-05-16T11:22:28;101904.84;;;16.17;44.19
58473;BME280;44775;51.564;5.460;2023-05-16T11:24:59;101889.91;;;16.06;54.52
58473;BME280;44775;51.564;5.460;2023-05-16T11:27:32;101894.88;;;15.63;52.14
58473;BME280;44775;51.564;5.460;2023-05-16T11:32:30;101896.53;;;15.64;47.09
58473;BME280;44775;51.564;5.460;2023-05-16T11:34:57;101902.91;;;16.02;51.96
58473;BME280;44775;51.564;5.460;2023-05-16T11:37:23;101898.22;;;16.65;47.73
58473;BME280;44775;51.564;5.460;2023-05-16T11:39:48;101880.94;;;17.04;50.05
58473;BME280;44775;51.564;5.460;2023-05-16T11:42:14;101891.28;;;17.30;46.86
58473;BME280;44775;51.564;5.460;2023-05-16T11:44:39;101885.63;;;17.25;50.34
58473;BME280;44775;51.564;5.460;2023-05-16T11:47:05;101897.34;;;17.03;53.70
58473;BME280;44775;51.564;5.460;2023-05-16T11:49:32;101902.19;;;16.55;48.03
58473;BME280;44775;51.564;5.460;2023-05-16T11:51:57;101890.25;;;16.03;45.19
58473;BME280;44775;51.564;5.460;2023-05-16T11:54:23;101905.38;;;16.35;48.02
58473;BME280;44775;51.564;5.460;2023-05-16T11:56:49;101908.22;;;16.57;44.27
58473;BME280;44775;51.564;5.460;2023-05-16T11:59:16;101899.56;;;17.14;45.78
58473;BME280;44775;51.564;5.460;2023-05-16T12:01:41;101902.94;;;17.97;48.08
58473;BME280;44775;51.564;5.460;2023-05-16T12:04:11;101894.97;;;18.59;49.52
58473;BME280;44775;51.564;5.460;2023-05-16T12:06:37;101912.69;;;18.62;38.53
58473;BME280;44775;51.564;5.460;2023-05-16T12:09:04;101906.38;;;18.27;40.39
58473;BME280;44775;51.564;5.460;2023-05-16T12:11:38;101911.50;;;18.00;39.26
58473;BME280;44775;51.564;5.460;2023-05-16T12:14:05;101903.38;;;17.79;49.83
58473;BME280;44775;51.564;5.460;2023-05-16T12:16:31;101907.06;;;17.92;49.33
58473;BME280;44775;51.564;5.460;2023-05-16T12:18:57;101912.00;;;17.74;46.82
58473;BME280;44775;51.564;5.460;2023-05-16T12:21:22;101909.22;;;17.67;55.30
58473;BME280;44775;51.564;5.460;2023-05-16T12:23:48;101897.91;;;17.42;46.44
58473;BME280;44775;51.564;5.460;2023-05-16T12:26:13;101913.72;;;17.31;42.46
58473;BME280;44775;51.564;5.460;2023-05-16T12:28:38;101919.34;;;17.29;41.48
58473;BME280;44775;51.564;5.460;2023-05-16T12:31:10;101921.94;;;17.22;42.10
58473;BME280;44775;51.564;5.460;2023-05-16T12:33:36;101907.41;;;17.38;52.08
58473;BME280;44775;51.564;5.460;2023-05-16T12:36:02;101907.03;;;17.41;49.70
58473;BME280;44775;51.564;5.460;2023-05-16T12:38:28;101918.22;;;17.38;41.95
58473;BME280;44775;51.564;5.460;2023-05-16T12:40:57;101913.16;;;17.80;47.70
58473;BME280;44775;51.564;5.460;2023-05-16T12:43:23;101914.00;;;17.65;41.93
58473;BME280;44775;51.564;5.460;2023-05-16T12:45:50;101922.72;;;17.67;44.79
58473;BME280;44775;51.564;5.460;2023-05-16T12:48:17;101923.63;;;17.23;45.13
58473;BME280;44775;51.564;5.460;2023-05-16T12:50:42;101925.44;;;17.67;49.91
58473;BME280;44775;51.564;5.460;2023-05-16T12:53:15;101928.06;;;17.31;44.72
58473;BME280;44775;51.564;5.460;2023-05-16T12:55:41;101939.56;;;17.18;50.38
58473;BME280;44775;51.564;5.460;2023-05-16T12:58:08;101927.06;;;17.17;47.94
58473;BME280;44775;51.564;5.460;2023-05-16T13:00:34;101938.53;;;17.19;44.45
58473;BME280;44775;51.564;5.460;2023-05-16T13:03:00;101941.78;;;17.30;45.92
58473;BME280;44775;51.564;5.460;2023-05-16T13:05:26;101932.47;;;17.47;43.92
58473;BME280;44775;51.564;5.460;2023-05-16T13:07:51;101925.13;;;17.11;44.21
58473;BME280;44775;51.564;5.460;2023-05-16T13:10:17;101918.03;;;17.25;54.46
58473;BME280;44775;51.564;5.460;2023-05-16T13:12:42;101929.31;;;17.29;49.75
58473;BME280;44775;51.564;5.460;2023-05-16T13:15:09;101923.72;;;17.15;53.93